createdAt,value
2017-10-17T00:01:03.676Z,98091.74
2017-10-17T00:03:31.190Z,98105.94
2017-10-17T00:05:58.768Z,98102.08
2017-10-17T00:08:26.377Z,98092.27
2017-10-17T00:10:53.904Z,98100.77
2017-10-17T00:13:21.704Z,98100.22
2017-10-17T00:15:49.219Z,98097.58
2017-10-17T00:18:16.815Z,98099.11
2017-10-17T00:20:44.475Z,98102.08
2017-10-17T00:23:12.138Z,98097.63
2017-10-17T00:25:39.804Z,98099.48
2017-10-17T00:28:07.666Z,98098.44
2017-10-17T00:30:45.111Z,98100.95
2017-10-17T00:33:15.502Z,98105.80
2017-10-17T00:35:44.809Z,98094.02
2017-10-17T00:38:14.123Z,98096.99
2017-10-17T00:40:42.056Z,98095.21
2017-10-17T00:43:16.511Z,98092.63
2017-10-17T00:45:44.347Z,98091.59
2017-10-17T00:48:17.795Z,98087.73
2017-10-17T00:50:47.232Z,98087.31
2017-10-17T00:53:15.588Z,98092.39
2017-10-17T00:55:43.120Z,98086.58
2017-10-17T00:58:11.006Z,98089.92
2017-10-17T01:00:38.541Z,98079.69
2017-10-17T01:03:06.068Z,98080.80
2017-10-17T01:05:33.774Z,98081.33
2017-10-17T01:08:01.299Z,98075.59
2017-10-17T01:10:28.820Z,98072.56
2017-10-17T01:12:56.706Z,98072.05
2017-10-17T01:15:24.239Z,98073.58
2017-10-17T01:17:51.926Z,98078.30
2017-10-17T01:20:35.460Z,98077.83
2017-10-17T01:23:04.542Z,98079.63
2017-10-17T01:25:32.114Z,98080.95
2017-10-17T01:28:03.789Z,98071.67
2017-10-17T01:30:31.431Z,98085.19
2017-10-17T01:32:58.963Z,98084.84
2017-10-17T01:35:26.960Z,98088.14
2017-10-17T01:37:54.486Z,98086.44
2017-10-17T01:40:25.451Z,98092.83
2017-10-17T01:42:53.044Z,98093.98
2017-10-17T01:45:20.598Z,98092.17
2017-10-17T01:47:48.114Z,98090.48
2017-10-17T01:50:18.760Z,98087.00
2017-10-17T01:52:47.115Z,98087.19
2017-10-17T01:55:14.642Z,98078.86
2017-10-17T01:57:46.067Z,98074.45
2017-10-17T02:00:14.386Z,98078.44
2017-10-17T02:02:41.911Z,98076.55
2017-10-17T02:05:09.500Z,98077.48
2017-10-17T02:07:37.887Z,98075.09
2017-10-17T02:10:09.018Z,98080.91
2017-10-17T02:12:36.647Z,98081.91
2017-10-17T02:15:04.223Z,98082.56
2017-10-17T02:17:33.432Z,98076.89
2017-10-17T02:20:01.147Z,98080.20
2017-10-17T02:22:39.768Z,98075.49
2017-10-17T02:28:25.676Z,98078.30
2017-10-17T02:30:54.811Z,98080.89
2017-10-17T02:33:24.067Z,98079.45
2017-10-17T02:35:51.727Z,98077.31
2017-10-17T02:38:19.259Z,98072.67
2017-10-17T02:40:48.364Z,98075.22
2017-10-17T02:43:22.353Z,98076.12
2017-10-17T02:45:49.962Z,98077.75
2017-10-17T02:48:28.674Z,98074.73
2017-10-17T02:50:56.336Z,98075.58
2017-10-17T02:53:24.000Z,98080.79
2017-10-17T02:55:52.640Z,98080.02
2017-10-17T02:58:20.172Z,98069.57
2017-10-17T03:00:47.766Z,98068.31
2017-10-17T03:03:32.259Z,98070.33
2017-10-17T03:05:59.793Z,98063.68
2017-10-17T03:08:27.478Z,98062.37
2017-10-17T03:10:55.346Z,98064.37
2017-10-17T03:13:27.331Z,98064.87
2017-10-17T03:15:56.915Z,98067.51
2017-10-17T03:18:24.443Z,98064.67
2017-10-17T03:20:53.832Z,98065.52
2017-10-17T03:23:24.747Z,98065.30
2017-10-17T03:25:52.272Z,98066.36
2017-10-17T03:28:19.799Z,98065.44
2017-10-17T03:30:51.176Z,98060.20
2017-10-17T03:33:29.593Z,98065.63
2017-10-17T03:35:57.459Z,98062.60
2017-10-17T03:41:41.852Z,98068.28
2017-10-17T03:44:14.949Z,98060.64
2017-10-17T03:46:43.247Z,98060.65
2017-10-17T03:49:28.571Z,98057.86
2017-10-17T03:51:56.263Z,98057.33
2017-10-17T03:54:26.700Z,98059.17
2017-10-17T03:56:54.227Z,98058.42
2017-10-17T03:59:25.975Z,98060.30
2017-10-17T04:01:53.503Z,98053.52
2017-10-17T04:04:27.568Z,98057.80
2017-10-17T04:10:25.648Z,98052.44
2017-10-17T04:12:53.964Z,98055.91
2017-10-17T04:15:21.579Z,98061.27
2017-10-17T04:17:54.259Z,98058.97
2017-10-17T04:20:31.375Z,98061.83
2017-10-17T04:23:10.907Z,98059.95
2017-10-17T04:25:51.215Z,98057.06
2017-10-17T04:28:49.521Z,98059.75
2017-10-17T04:34:35.227Z,98059.00
2017-10-17T04:37:20.459Z,98059.27
2017-10-17T04:39:48.567Z,98060.09
2017-10-17T04:42:28.883Z,98061.93
2017-10-17T04:48:44.507Z,98063.42
2017-10-17T04:51:23.132Z,98060.75
2017-10-17T04:53:59.279Z,98059.89
2017-10-17T04:56:27.076Z,98062.06
2017-10-17T05:02:15.919Z,98060.05
2017-10-17T05:05:09.748Z,98060.73
2017-10-17T05:10:52.525Z,98057.37
2017-10-17T05:16:49.039Z,98057.21
2017-10-17T05:22:22.660Z,98058.45
2017-10-17T05:24:52.266Z,98059.22
2017-10-17T05:30:26.892Z,98063.55
2017-10-17T05:33:03.503Z,98067.88
2017-10-17T05:35:31.287Z,98063.78
2017-10-17T05:37:58.898Z,98062.11
2017-10-17T05:40:26.692Z,98062.27
2017-10-17T05:42:54.415Z,98062.06
2017-10-17T05:45:21.935Z,98058.78
2017-10-17T05:47:52.979Z,98054.95
2017-10-17T05:55:30.128Z,98063.27
2017-10-17T05:57:57.812Z,98061.61
2017-10-17T06:00:25.372Z,98063.84
2017-10-17T06:02:52.904Z,98064.97
2017-10-17T06:05:20.627Z,98062.86
2017-10-17T06:07:48.154Z,98067.89
2017-10-17T06:10:15.711Z,98077.28
2017-10-17T06:12:43.419Z,98074.09
2017-10-17T06:15:10.956Z,98078.63
2017-10-17T06:17:38.491Z,98078.63
2017-10-17T06:20:06.064Z,98077.12
2017-10-17T06:22:33.596Z,98078.52
2017-10-17T06:25:01.135Z,98080.36
2017-10-17T06:27:28.810Z,98084.96
2017-10-17T06:29:56.389Z,98078.34
2017-10-17T06:32:23.920Z,98082.73
2017-10-17T06:34:51.504Z,98084.23
2017-10-17T06:37:19.035Z,98089.95
2017-10-17T06:39:46.571Z,98097.54
2017-10-17T06:42:14.302Z,98097.78
2017-10-17T06:44:41.846Z,98096.77
2017-10-17T06:47:09.374Z,98097.70
2017-10-17T06:49:36.973Z,98094.41
2017-10-17T06:52:04.503Z,98096.59
2017-10-17T06:54:32.039Z,98093.84
2017-10-17T06:56:59.728Z,98097.13
2017-10-17T06:59:27.271Z,98100.75
2017-10-17T07:01:54.811Z,98102.69
2017-10-17T07:04:22.822Z,98104.47
2017-10-17T07:06:50.395Z,98105.19
2017-10-17T07:09:17.960Z,98098.77
2017-10-17T07:11:45.560Z,98103.84
2017-10-17T07:14:13.100Z,98104.23
2017-10-17T07:16:40.626Z,98101.77
2017-10-17T07:19:08.434Z,98101.77
2017-10-17T07:21:35.960Z,98110.33
2017-10-17T07:24:03.559Z,98101.52
2017-10-17T07:26:31.478Z,98107.66
2017-10-17T07:28:59.012Z,98108.59
2017-10-17T07:31:27.006Z,98101.03
2017-10-17T07:33:54.747Z,98100.20
2017-10-17T07:36:22.279Z,98102.23
2017-10-17T07:38:49.819Z,98098.47
2017-10-17T07:41:17.395Z,98096.16
2017-10-17T07:43:44.938Z,98100.75
2017-10-17T07:46:12.479Z,98097.63
2017-10-17T07:48:40.058Z,98096.69
2017-10-17T07:51:07.612Z,98094.71
2017-10-17T07:53:35.179Z,98095.01
2017-10-17T07:56:02.767Z,98096.67
2017-10-17T07:58:30.304Z,98095.45
2017-10-17T08:00:57.832Z,98094.27
2017-10-17T08:03:25.420Z,98096.03
2017-10-17T08:05:52.947Z,98098.95
2017-10-17T08:08:20.583Z,98099.21
2017-10-17T08:10:48.336Z,98098.02
2017-10-17T08:13:15.867Z,98098.06
2017-10-17T08:15:43.404Z,98096.20
2017-10-17T08:18:11.127Z,98088.00
2017-10-17T08:20:38.656Z,98083.62
2017-10-17T08:23:06.201Z,98083.30
2017-10-17T08:25:33.919Z,98083.09
2017-10-17T08:28:01.480Z,98078.31
2017-10-17T08:30:29.038Z,98077.06
2017-10-17T08:32:56.784Z,98073.64
2017-10-17T08:35:24.320Z,98072.91
2017-10-17T08:37:51.847Z,98071.00
2017-10-17T08:40:19.786Z,98069.57
2017-10-17T08:42:47.315Z,98069.63
2017-10-17T08:45:14.845Z,98069.92
2017-10-17T08:47:42.491Z,98070.20
2017-10-17T08:50:10.031Z,98066.02
2017-10-17T08:52:37.559Z,98062.76
2017-10-17T08:55:05.328Z,98059.16
2017-10-17T08:57:32.907Z,98064.52
2017-10-17T09:00:00.465Z,98063.63
2017-10-17T09:02:28.207Z,98068.56
2017-10-17T09:04:55.735Z,98065.70
2017-10-17T09:07:23.270Z,98063.58
2017-10-17T09:09:51.091Z,98060.37
2017-10-17T09:12:18.628Z,98046.16
2017-10-17T09:14:46.160Z,98052.08
2017-10-17T09:17:13.742Z,98045.38
2017-10-17T09:19:41.266Z,98051.70
2017-10-17T09:22:08.792Z,98053.07
2017-10-17T09:24:36.546Z,98054.34
2017-10-17T09:27:04.129Z,98058.44
2017-10-17T09:29:31.686Z,98054.50
2017-10-17T09:31:59.431Z,98051.94
2017-10-17T09:34:26.963Z,98054.52
2017-10-17T09:36:54.495Z,98055.22
2017-10-17T09:39:22.129Z,98045.30
2017-10-17T09:41:49.686Z,98049.73
2017-10-17T09:44:17.242Z,98047.13
2017-10-17T09:46:45.011Z,98042.63
2017-10-17T09:49:12.552Z,98038.98
2017-10-17T09:51:40.096Z,98035.34
2017-10-17T09:54:07.755Z,98034.42
2017-10-17T09:56:35.291Z,98035.02
2017-10-17T09:59:02.848Z,98033.66
2017-10-17T10:01:30.503Z,98033.59
2017-10-17T10:03:58.037Z,98030.91
2017-10-17T10:06:25.580Z,98027.64
2017-10-17T10:08:53.324Z,98028.55
2017-10-17T10:11:20.843Z,98022.67
2017-10-17T10:13:48.384Z,98025.73
2017-10-17T10:16:15.963Z,98017.73
2017-10-17T10:18:43.498Z,98020.64
2017-10-17T10:21:11.023Z,98011.99
2017-10-17T10:23:38.713Z,98016.62
2017-10-17T10:26:06.238Z,98012.58
2017-10-17T10:28:33.763Z,98002.43
2017-10-17T10:31:01.330Z,98000.12
2017-10-17T10:33:28.859Z,98001.37
2017-10-17T10:35:56.908Z,98002.48
2017-10-17T10:38:24.674Z,97998.36
2017-10-17T10:40:52.195Z,97992.12
2017-10-17T10:43:19.731Z,97992.70
2017-10-17T10:45:47.300Z,97993.19
2017-10-17T10:48:14.823Z,97987.81
2017-10-17T10:50:42.347Z,97986.86
2017-10-17T10:53:09.911Z,97979.28
2017-10-17T10:55:37.451Z,97979.58
2017-10-17T10:58:04.976Z,97974.94
2017-10-17T11:00:32.792Z,97973.47
2017-10-17T11:03:00.320Z,97972.62
2017-10-17T11:05:27.851Z,97967.42
2017-10-17T11:08:12.411Z,97960.24
2017-10-17T11:10:39.924Z,97957.59
2017-10-17T11:13:07.441Z,97952.42
2017-10-17T11:15:35.161Z,97953.31
2017-10-17T11:18:02.683Z,97947.88
2017-10-17T11:20:30.195Z,97947.03
2017-10-17T11:22:58.139Z,97940.33
2017-10-17T11:25:25.656Z,97935.87
2017-10-17T11:27:53.167Z,97928.20
2017-10-17T11:30:20.917Z,97928.70
2017-10-17T11:32:48.434Z,97925.47
2017-10-17T11:35:16.046Z,97919.08
2017-10-17T11:37:43.792Z,97919.55
2017-10-17T11:40:11.470Z,97912.73
2017-10-17T11:45:42.059Z,97899.04
2017-10-17T11:48:09.782Z,97896.55
2017-10-17T11:50:37.291Z,97899.45
2017-10-17T11:53:04.807Z,97895.33
2017-10-17T11:55:32.347Z,97891.14
2017-10-17T11:57:59.875Z,97887.23
2017-10-17T12:00:27.555Z,97884.58
2017-10-17T12:02:55.327Z,97882.27
2017-10-17T12:05:22.903Z,97868.97
2017-10-17T12:07:50.460Z,97864.20
2017-10-17T12:10:18.005Z,97864.47
2017-10-17T12:12:45.530Z,97852.83
2017-10-17T12:15:13.063Z,97849.09
2017-10-17T12:17:40.615Z,97848.72
2017-10-17T12:20:08.179Z,97841.78
2017-10-17T12:22:35.709Z,97842.96
2017-10-17T12:25:03.460Z,97833.67
2017-10-17T12:27:31.972Z,97827.42
2017-10-17T12:29:59.504Z,97825.73
2017-10-17T12:32:27.128Z,97822.66
2017-10-17T12:34:54.651Z,97818.58
2017-10-17T12:37:22.172Z,97808.64
2017-10-17T12:39:49.754Z,97806.30
2017-10-17T12:42:17.275Z,97806.92
2017-10-17T12:44:44.874Z,97803.16
2017-10-17T12:47:12.617Z,97802.75
2017-10-17T12:49:40.143Z,97804.63
2017-10-17T12:52:07.667Z,97798.48
2017-10-17T12:54:35.406Z,97790.64
2017-10-17T12:57:02.927Z,97794.19
2017-10-17T12:59:30.454Z,97783.59
2017-10-17T13:01:58.382Z,97786.27
2017-10-17T13:04:25.898Z,97778.54
2017-10-17T13:06:53.929Z,97781.13
2017-10-17T13:09:21.591Z,97776.77
2017-10-17T13:11:49.456Z,97777.05
2017-10-17T13:14:17.023Z,97766.91
2017-10-17T13:16:44.667Z,97770.92
2017-10-17T13:19:12.237Z,97765.31
2017-10-17T13:21:39.813Z,97764.62
2017-10-17T13:24:07.380Z,97760.03
2017-10-17T13:26:34.900Z,97761.81
2017-10-17T13:29:02.414Z,97757.25
2017-10-17T13:31:30.115Z,97747.63
2017-10-17T13:33:57.634Z,97748.02
2017-10-17T13:36:25.170Z,97742.71
2017-10-17T13:38:53.222Z,97741.69
2017-10-17T13:41:20.768Z,97741.88
2017-10-17T13:43:48.288Z,97731.80
2017-10-17T13:46:16.187Z,97736.52
2017-10-17T13:48:44.687Z,97731.44
2017-10-17T13:51:12.249Z,97729.07
2017-10-17T13:53:40.105Z,97726.81
2017-10-17T13:56:07.631Z,97733.97
2017-10-17T13:58:35.157Z,97730.36
2017-10-17T14:01:02.812Z,97727.75
2017-10-17T14:03:30.349Z,97722.94
2017-10-17T14:05:57.909Z,97726.58
2017-10-17T14:08:25.877Z,97722.22
2017-10-17T14:10:53.437Z,97716.83
2017-10-17T14:13:20.996Z,97710.34
2017-10-17T14:15:48.760Z,97709.48
2017-10-17T14:18:16.318Z,97712.14
2017-10-17T14:20:43.878Z,97704.22
2017-10-17T14:23:11.623Z,97706.61
2017-10-17T14:25:39.154Z,97702.56
2017-10-17T14:28:06.679Z,97700.55
2017-10-17T14:30:34.420Z,97697.97
2017-10-17T14:33:01.980Z,97688.08
2017-10-17T14:35:29.539Z,97689.73
2017-10-17T14:37:57.119Z,97691.92
2017-10-17T14:40:24.699Z,97682.83
2017-10-17T14:42:52.263Z,97685.83
2017-10-17T14:45:19.964Z,97690.30
2017-10-17T14:47:47.541Z,97680.42
2017-10-17T14:50:15.093Z,97677.24
2017-10-17T14:52:42.968Z,97681.57
2017-10-17T14:55:10.630Z,97677.45
2017-10-17T14:57:38.189Z,97677.13
2017-10-17T15:00:05.953Z,97678.63
2017-10-17T15:02:33.510Z,97676.01
2017-10-17T15:05:01.070Z,97674.66
2017-10-17T15:07:28.831Z,97674.73
2017-10-17T15:09:56.802Z,97667.34
2017-10-17T15:12:25.278Z,97662.08
2017-10-17T15:14:52.840Z,97655.61
2017-10-17T15:17:20.401Z,97652.34
2017-10-17T15:19:48.065Z,97654.33
2017-10-17T15:22:15.808Z,97647.44
2017-10-17T15:24:43.396Z,97647.06
2017-10-17T15:27:10.951Z,97644.52
2017-10-17T15:29:38.614Z,97643.75
2017-10-17T15:32:06.164Z,97645.52
2017-10-17T15:34:33.724Z,97634.55
2017-10-17T15:37:01.292Z,97638.42
2017-10-17T15:39:28.841Z,97636.89
2017-10-17T15:41:56.401Z,97629.84
2017-10-17T15:44:24.268Z,97631.84
2017-10-17T15:46:51.820Z,97619.80
2017-10-17T15:49:19.332Z,97622.64
2017-10-17T15:51:47.046Z,97623.25
2017-10-17T15:54:14.607Z,97617.52
2017-10-17T15:56:42.167Z,97612.92
2017-10-17T15:59:10.055Z,97617.36
2017-10-17T16:01:37.592Z,97616.80
2017-10-17T16:04:05.152Z,97623.94
2017-10-17T16:06:33.239Z,97609.33
2017-10-17T16:09:00.788Z,97611.89
2017-10-17T16:11:28.742Z,97619.95
2017-10-17T16:13:56.471Z,97615.78
2017-10-17T16:16:24.176Z,97616.84
2017-10-17T16:18:51.745Z,97610.31
2017-10-17T16:21:19.602Z,97614.97
2017-10-17T16:23:47.284Z,97611.55
2017-10-17T16:26:14.825Z,97609.92
2017-10-17T16:28:42.585Z,97613.39
2017-10-17T16:31:10.146Z,97612.00
2017-10-17T16:33:37.772Z,97607.69
2017-10-17T16:36:05.674Z,97608.02
2017-10-17T16:38:33.230Z,97613.47
2017-10-17T16:41:00.789Z,97610.80
2017-10-17T16:43:28.368Z,97621.28
2017-10-17T16:45:56.012Z,97624.55
2017-10-17T16:48:23.581Z,97616.91
2017-10-17T16:50:51.419Z,97616.98
2017-10-17T16:53:18.947Z,97617.86
2017-10-17T16:55:46.507Z,97615.92
2017-10-17T16:58:14.229Z,97616.42
2017-10-17T17:00:41.878Z,97621.63
2017-10-17T17:03:09.645Z,97621.95
2017-10-17T17:05:37.612Z,97620.20
2017-10-17T17:08:05.461Z,97625.66
2017-10-17T17:10:34.162Z,97619.88
2017-10-17T17:13:02.130Z,97617.30
2017-10-17T17:15:29.711Z,97619.47
2017-10-17T17:17:57.466Z,97623.72
2017-10-17T17:20:25.595Z,97620.94
2017-10-17T17:22:53.500Z,97618.59
2017-10-17T17:25:21.363Z,97623.68
2017-10-17T17:27:49.219Z,97628.70
2017-10-17T17:30:16.990Z,97622.48
2017-10-17T17:32:44.613Z,97630.81
2017-10-17T17:35:12.655Z,97632.03
2017-10-17T17:37:40.393Z,97632.11
2017-10-17T17:40:08.008Z,97632.34
2017-10-17T17:42:36.136Z,97637.36
2017-10-17T17:45:03.989Z,97630.36
2017-10-17T17:47:31.747Z,97630.28
2017-10-17T17:49:59.921Z,97630.84
2017-10-17T17:52:27.492Z,97634.92
2017-10-17T17:54:55.041Z,97634.24
2017-10-17T17:57:23.043Z,97634.39
2017-10-17T17:59:50.773Z,97639.78
2017-10-17T18:02:18.367Z,97637.86
2017-10-17T18:04:46.506Z,97639.14
2017-10-17T18:07:14.278Z,97637.27
2017-10-17T18:09:42.046Z,97642.02
2017-10-17T18:12:10.105Z,97634.58
2017-10-17T18:14:37.870Z,97631.03
2017-10-17T18:17:05.756Z,97635.74
2017-10-17T18:19:34.130Z,97637.02
2017-10-17T18:22:01.894Z,97631.03
2017-10-17T18:24:29.745Z,97632.84
2017-10-17T18:26:58.169Z,97632.05
2017-10-17T18:29:26.570Z,97635.38
2017-10-17T18:31:54.381Z,97634.19
2017-10-17T18:34:22.245Z,97626.06
2017-10-17T18:36:50.219Z,97626.70
2017-10-17T18:39:17.981Z,97629.39
2017-10-17T18:41:46.147Z,97625.97
2017-10-17T18:44:13.915Z,97629.61
2017-10-17T18:46:41.692Z,97628.66
2017-10-17T18:49:09.846Z,97628.59
2017-10-17T18:51:37.545Z,97623.19
2017-10-17T18:54:05.275Z,97627.28
2017-10-17T18:56:33.241Z,97625.86
2017-10-17T18:59:00.905Z,97623.06
2017-10-17T19:01:28.763Z,97626.97
2017-10-17T19:03:56.658Z,97626.06
2017-10-17T19:06:24.803Z,97623.75
2017-10-17T19:08:53.433Z,97615.16
2017-10-17T19:11:22.686Z,97616.23
2017-10-17T19:13:50.461Z,97610.78
2017-10-17T19:16:18.234Z,97605.69
2017-10-17T19:18:46.309Z,97612.00
2017-10-17T19:21:14.254Z,97607.04
2017-10-17T19:23:42.325Z,97605.24
2017-10-17T19:26:10.431Z,97596.61
2017-10-17T19:28:38.280Z,97600.87
2017-10-17T19:31:06.231Z,97597.27
2017-10-17T19:33:34.527Z,97604.13
2017-10-17T19:36:03.092Z,97599.00
2017-10-17T19:38:31.469Z,97597.61
2017-10-17T19:40:59.560Z,97594.98
2017-10-17T19:43:27.408Z,97591.00
2017-10-17T19:45:55.274Z,97596.95
2017-10-17T19:48:23.798Z,97599.50
2017-10-17T19:50:51.656Z,97595.23
2017-10-17T19:53:20.510Z,97593.63
2017-10-17T19:55:48.491Z,97597.42
2017-10-17T19:58:16.857Z,97597.01
2017-10-17T20:00:44.743Z,97593.23
2017-10-17T20:03:13.171Z,97590.02
2017-10-17T20:05:41.092Z,97591.92
2017-10-17T20:08:09.450Z,97590.42
2017-10-17T20:10:37.625Z,97588.52
2017-10-17T20:13:05.494Z,97588.95
2017-10-17T20:15:33.254Z,97592.50
2017-10-17T20:18:01.239Z,97594.44
2017-10-17T20:20:29.921Z,97591.30
2017-10-17T20:22:57.680Z,97589.58
2017-10-17T20:25:25.766Z,97586.30
2017-10-17T20:27:53.493Z,97582.85
2017-10-17T20:32:48.732Z,97586.80
2017-10-17T20:35:16.491Z,97585.52
2017-10-17T20:37:44.257Z,97578.03
2017-10-17T20:40:12.430Z,97580.06
2017-10-17T20:42:40.150Z,97584.42
2017-10-17T20:45:08.059Z,97585.41
2017-10-17T20:47:36.237Z,97587.64
2017-10-17T20:50:04.714Z,97589.09
2017-10-17T20:52:32.686Z,97581.44
2017-10-17T20:55:00.761Z,97584.34
2017-10-17T20:57:28.344Z,97587.67
2017-10-17T20:59:56.088Z,97577.96
2017-10-17T21:02:24.250Z,97576.75
2017-10-17T21:04:51.851Z,97575.83
2017-10-17T21:07:19.581Z,97576.34
2017-10-17T21:09:47.486Z,97578.52
2017-10-17T21:12:15.055Z,97578.02
2017-10-17T21:14:42.627Z,97581.64
2017-10-17T21:17:10.530Z,97580.28
2017-10-17T21:19:38.108Z,97581.44
2017-10-17T21:22:05.703Z,97571.70
2017-10-17T21:24:33.494Z,97567.41
2017-10-17T21:27:01.072Z,97566.26
2017-10-17T21:29:28.639Z,97565.31
2017-10-17T21:31:56.395Z,97564.06
2017-10-17T21:34:23.923Z,97562.91
2017-10-17T21:36:51.454Z,97559.52
2017-10-17T21:39:19.174Z,97560.33
2017-10-17T21:41:46.748Z,97561.20
2017-10-17T21:44:14.303Z,97557.66
2017-10-17T21:46:42.157Z,97555.54
2017-10-17T21:49:09.716Z,97553.04
2017-10-17T21:51:37.275Z,97552.59
2017-10-17T21:54:05.020Z,97557.36
2017-10-17T21:56:32.600Z,97549.75
2017-10-17T21:59:00.160Z,97554.15
2017-10-17T22:01:28.015Z,97551.72
2017-10-17T22:03:55.556Z,97553.14
2017-10-17T22:06:23.098Z,97551.41
2017-10-17T22:08:50.917Z,97541.63
2017-10-17T22:11:18.455Z,97544.63
2017-10-17T22:13:46.004Z,97546.25
2017-10-17T22:16:13.600Z,97542.97
2017-10-17T22:18:41.144Z,97539.59
2017-10-17T22:21:08.675Z,97537.98
2017-10-17T22:23:36.248Z,97535.72
2017-10-17T22:26:03.821Z,97527.53
2017-10-17T22:28:31.381Z,97523.71
2017-10-17T22:30:58.960Z,97526.28
2017-10-17T22:33:26.494Z,97533.36
2017-10-17T22:35:54.031Z,97529.66
2017-10-17T22:38:21.908Z,97531.91
2017-10-17T22:40:49.431Z,97527.17
2017-10-17T22:43:16.955Z,97526.03
2017-10-17T22:45:44.805Z,97526.59
2017-10-17T22:48:12.365Z,97524.63
2017-10-17T22:50:39.925Z,97518.07
2017-10-17T22:53:07.517Z,97519.28
2017-10-17T22:55:35.043Z,97524.34
2017-10-17T22:58:02.567Z,97513.55
2017-10-17T23:00:30.467Z,97515.06
2017-10-17T23:02:57.994Z,97518.82
2017-10-17T23:05:25.515Z,97510.04
2017-10-17T23:07:53.145Z,97515.85
2017-10-17T23:10:20.705Z,97510.10
2017-10-17T23:12:48.268Z,97508.28
2017-10-17T23:15:15.856Z,97507.98
2017-10-17T23:17:55.158Z,97512.98
2017-10-17T23:20:38.672Z,97516.78
2017-10-17T23:23:06.251Z,97507.84
2017-10-17T23:25:33.812Z,97508.02
2017-10-17T23:28:01.395Z,97503.92
2017-10-17T23:30:28.926Z,97505.49
2017-10-17T23:32:56.487Z,97499.13
2017-10-17T23:35:24.253Z,97503.41
2017-10-17T23:37:51.809Z,97499.63
2017-10-17T23:40:19.373Z,97499.88
2017-10-17T23:42:46.946Z,97498.48
2017-10-17T23:45:14.486Z,97493.01
2017-10-17T23:47:42.003Z,97489.09
2017-10-17T23:50:09.809Z,97491.64
2017-10-17T23:52:37.370Z,97491.15
2017-10-17T23:55:04.931Z,97483.98
2017-10-17T23:57:32.579Z,97486.69
